Time;durP1;ratioP1;P1;durP2;ratioP2;P2;SDS_P1;SDS_P2;PMS_P1;PMS_P2;Temp;Humidity;BMP_temperature;BMP_pressure;BME280_temperature;BME280_humidity;BME280_pressure;Samples;Min_cycle;Max_cycle;Signal;HPM_P1;HPM_P2
2021/10/09 00:00:57;;;;;;;7.28;3.53;;;28.60;88.20;;;;;;5107566;28;20334;-35
2021/10/09 00:03:23;;;;;;;12.73;4.22;;;28.60;88.40;;;;;;5107388;28;20083;-43
2021/10/09 00:05:50;;;;;;;13.48;3.75;;;28.60;88.90;;;;;;5107417;28;20246;-46
2021/10/09 00:08:22;;;;;;;10.20;3.95;;;28.60;88.80;;;;;;5107437;28;20016;-38
2021/10/09 00:10:48;;;;;;;;;;;28.60;88.70;;;;;;5107579;28;20020;-45
2021/10/09 00:13:15;;;;;;;15.57;5.95;;;28.70;88.70;;;;;;5107226;28;19904;-38
2021/10/09 00:15:42;;;;;;;15.57;6.32;;;28.80;88.50;;;;;;5107256;28;20065;-37
2021/10/09 00:18:09;;;;;;;10.98;6.18;;;28.90;88.20;;;;;;5107080;28;20023;-39
2021/10/09 00:20:35;;;;;;;11.40;5.90;;;28.90;88.00;;;;;;5107160;28;20047;-37
2021/10/09 00:23:02;;;;;;;8.63;4.57;;;28.90;88.10;;;;;;5107276;28;20016;-38
2021/10/09 00:25:29;;;;;;;9.20;3.90;;;28.90;88.10;;;;;;5107223;28;20043;-44
2021/10/09 00:27:55;;;;;;;6.97;3.78;;;28.90;88.40;;;;;;5107301;28;20036;-42
2021/10/09 00:30:22;;;;;;;7.90;3.50;;;28.90;88.40;;;;;;5107408;28;20324;-44
2021/10/09 00:32:48;;;;;;;7.20;3.83;;;28.90;88.50;;;;;;5106998;28;20330;-38
2021/10/09 00:35:15;;;;;;;6.35;3.95;;;28.90;88.50;;;;;;5105589;28;20111;-39
2021/10/09 00:37:42;;;;;;;8.85;3.80;;;28.90;88.30;;;;;;5107277;28;20028;-42
2021/10/09 00:40:09;;;;;;;6.20;4.15;;;29.00;88.10;;;;;;5107257;28;20024;-39
2021/10/09 00:42:36;;;;;;;7.47;3.95;;;29.00;88.10;;;;;;5105803;28;20258;-39
2021/10/09 00:45:03;;;;;;;7.63;4.07;;;29.00;88.00;;;;;;5106935;28;20095;-45
2021/10/09 00:47:29;;;;;;;5.85;3.80;;;29.00;88.00;;;;;;5106644;28;20024;-46
2021/10/09 00:49:56;;;;;;;8.63;4.20;;;29.00;87.80;;;;;;5106985;28;20095;-38
2021/10/09 00:52:25;;;;;;;8.70;3.60;;;28.90;87.70;;;;;;5106734;28;20026;-46
2021/10/09 00:54:54;;;;;;;7.22;3.38;;;29.00;87.70;;;;;;5105344;28;20093;-48
2021/10/09 00:57:23;;;;;;;7.65;3.47;;;28.90;87.50;;;;;;5105958;28;20316;-42
2021/10/09 00:59:51;;;;;;;7.20;3.25;;;29.00;87.40;;;;;;5106239;28;20036;-42
2021/10/09 01:02:19;;;;;;;8.95;2.85;;;29.00;87.30;;;;;;5106450;28;20026;-43
2021/10/09 01:04:49;;;;;;;8.10;3.50;;;29.00;87.40;;;;;;5106480;28;20304;-44
2021/10/09 01:07:16;;;;;;;8.27;4.10;;;29.00;87.30;;;;;;5106238;28;20114;-46
2021/10/09 01:09:45;;;;;;;11.13;5.22;;;29.00;87.20;;;;;;5106478;28;20031;-40
2021/10/09 01:12:14;;;;;;;17.65;6.78;;;29.00;87.30;;;;;;5106248;28;20047;-40
2021/10/09 01:14:41;;;;;;;12.90;7.32;;;29.00;87.50;;;;;;5106345;28;20058;-37
2021/10/09 01:17:14;;;;;;;17.45;7.93;;;29.00;87.60;;;;;;5104987;28;20020;-40
2021/10/09 01:19:41;;;;;;;17.10;8.07;;;29.00;87.70;;;;;;5105184;28;20032;-45
2021/10/09 01:22:09;;;;;;;23.63;8.82;;;29.00;88.30;;;;;;5106068;28;20202;-43
2021/10/09 01:24:37;;;;;;;19.58;9.43;;;28.90;87.90;;;;;;5105680;28;20036;-38
2021/10/09 01:27:05;;;;;;;14.38;9.10;;;28.80;88.30;;;;;;5104895;28;20031;-43
2021/10/09 01:29:32;;;;;;;20.17;9.27;;;28.80;88.50;;;;;;5105628;28;20032;-38
2021/10/09 01:32:00;;;;;;;17.80;8.80;;;28.80;88.60;;;;;;5105479;28;20016;-37
2021/10/09 01:34:30;;;;;;;15.65;8.05;;;28.80;88.60;;;;;;5105643;28;20232;-37
2021/10/09 01:36:57;;;;;;;13.93;6.50;;;28.80;88.70;;;;;;5106141;28;20099;-42
2021/10/09 01:39:24;;;;;;;8.45;5.60;;;28.80;88.70;;;;;;5105497;28;20055;-42
2021/10/09 01:41:51;;;;;;;12.38;4.80;;;28.80;88.70;;;;;;5104804;28;20020;-44
2021/10/09 01:44:18;;;;;;;9.30;4.65;;;28.80;88.80;;;;;;5102644;28;20381;-38
2021/10/09 01:46:45;;;;;;;5.55;4.18;;;28.80;88.70;;;;;;5104574;28;20019;-45
2021/10/09 01:49:12;;;;;;;12.00;4.57;;;28.80;88.90;;;;;;5105515;28;20244;-49
2021/10/09 01:51:39;;;;;;;8.32;4.57;;;28.80;89.00;;;;;;5105589;28;20066;-39
2021/10/09 01:54:06;;;;;;;9.95;4.80;;;28.80;88.90;;;;;;5105276;28;20038;-38
2021/10/09 01:56:32;;;;;;;9.23;4.35;;;28.80;88.70;;;;;;5105511;28;20024;-40
2021/10/09 01:58:59;;;;;;;5.00;3.28;;;28.80;88.80;;;;;;5105585;28;20204;-39
2021/10/09 02:01:26;;;;;;;5.70;3.38;;;28.80;88.90;;;;;;5104995;28;20038;-42
2021/10/09 02:03:52;;;;;;;7.40;3.08;;;28.70;88.90;;;;;;5105553;28;20065;-45
2021/10/09 02:06:19;;;;;;;7.30;3.25;;;28.70;88.90;;;;;;5103910;28;20016;-38
2021/10/09 02:08:46;;;;;;;5.20;3.25;;;28.70;89.00;;;;;;5104446;28;20043;-45
2021/10/09 02:11:16;;;;;;;3.58;3.05;;;28.70;89.00;;;;;;5104877;28;20084;-39
2021/10/09 02:26:57;;;;;;;40.95;34.47;;;28.60;89.00;;;;;;5104852;28;20023;-44
2021/10/09 02:29:24;;;;;;;54.67;44.35;;;28.60;89.00;;;;;;5104805;28;20075;-37
2021/10/09 02:31:56;;;;;;;41.20;35.33;;;28.60;89.00;;;;;;5104784;28;20020;-44
2021/10/09 02:34:23;;;;;;;33.90;28.35;;;28.60;89.00;;;;;;5104473;28;20147;-42
2021/10/09 02:36:50;;;;;;;46.58;41.50;;;28.60;89.00;;;;;;5104578;28;20094;-39
2021/10/09 02:39:17;;;;;;;35.80;30.95;;;28.50;89.10;;;;;;5104474;28;20096;-46
2021/10/09 02:41:44;;;;;;;20.90;18.13;;;28.60;89.20;;;;;;5104697;28;20020;-47
2021/10/09 02:44:10;;;;;;;17.15;12.15;;;28.60;89.10;;;;;;5104225;28;20054;-40
2021/10/09 02:46:37;;;;;;;11.43;8.70;;;28.60;89.10;;;;;;5104582;28;20023;-44
2021/10/09 02:49:04;;;;;;;12.15;7.57;;;28.60;89.10;;;;;;5104611;28;20020;-53
2021/10/09 02:51:31;;;;;;;8.30;6.15;;;28.60;89.20;;;;;;5104345;28;20079;-42
2021/10/09 02:53:57;;;;;;;12.77;6.68;;;28.60;89.20;;;;;;5104587;28;20028;-39
2021/10/09 02:56:24;;;;;;;10.45;5.57;;;28.50;89.20;;;;;;5104269;28;20068;-42
2021/10/09 02:58:51;;;;;;;11.43;4.90;;;28.60;89.30;;;;;;5104551;28;20020;-44
2021/10/09 03:01:17;;;;;;;10.13;5.10;;;28.60;89.30;;;;;;5103944;28;20031;-42
2021/10/09 03:03:44;;;;;;;10.80;5.10;;;28.50;89.30;;;;;;5104173;28;20032;-40
2021/10/09 03:06:10;;;;;;;6.32;4.40;;;28.50;89.40;;;;;;5104296;28;20027;-40
2021/10/09 03:08:37;;;;;;;8.65;4.90;;;28.50;89.40;;;;;;5104264;28;20096;-40
2021/10/09 03:11:03;;;;;;;8.90;4.57;;;28.60;89.40;;;;;;5104020;28;20027;-39
2021/10/09 03:13:30;;;;;;;8.30;4.40;;;28.50;89.40;;;;;;5104037;28;20066;-41
2021/10/09 03:15:56;;;;;;;15.55;4.30;;;28.50;89.40;;;;;;5104000;28;20024;-43
2021/10/09 03:18:23;;;;;;;9.32;4.50;;;28.50;89.30;;;;;;5104117;28;20024;-43
2021/10/09 03:20:50;;;;;;;8.38;4.32;;;28.60;89.50;;;;;;5103772;28;20016;-44
2021/10/09 03:23:16;;;;;;;4.90;3.47;;;28.50;89.50;;;;;;5103931;28;20048;-43
2021/10/09 03:25:43;;;;;;;6.65;3.80;;;28.50;89.40;;;;;;5103655;28;20138;-42
2021/10/09 03:28:09;;;;;;;7.80;4.00;;;28.50;89.40;;;;;;5103985;28;20076;-39
2021/10/09 03:30:36;;;;;;;7.85;4.10;;;28.50;89.50;;;;;;5103763;28;20012;-40
2021/10/09 03:33:03;;;;;;;8.13;4.10;;;28.50;89.50;;;;;;5103960;28;20242;-36
2021/10/09 03:35:29;;;;;;;6.90;4.07;;;28.60;89.70;;;;;;5103591;28;20067;-41
2021/10/09 03:37:56;;;;;;;7.32;4.35;;;28.50;89.70;;;;;;5103844;28;20024;-41
2021/10/09 03:40:25;;;;;;;11.65;5.45;;;28.60;89.80;;;;;;5104025;28;20078;-46
2021/10/09 03:45:33;;;;;;;8.45;5.78;;;28.50;89.90;;;;;;5103927;28;20196;-52
2021/10/09 03:48:38;;;;;;;13.63;5.70;;;28.60;90.00;;;;;;5104111;28;20203;-46
2021/10/09 03:53:37;;;;;;;10.07;4.50;;;28.50;90.00;;;;;;5103601;28;20016;-46
2021/10/09 03:56:04;;;;;;;9.85;4.90;;;28.50;90.10;;;;;;5103332;28;20080;-38
2021/10/09 03:58:30;;;;;;;7.53;4.50;;;28.50;90.10;;;;;;5103710;28;20020;-44
2021/10/09 04:00:57;;;;;;;8.07;4.55;;;28.50;90.10;;;;;;5103495;28;20016;-40
2021/10/09 04:03:24;;;;;;;10.93;4.43;;;28.50;90.10;;;;;;5103422;28;20211;-37
2021/10/09 04:05:50;;;;;;;11.93;4.75;;;28.50;90.10;;;;;;5103278;28;20243;-37
2021/10/09 04:08:17;;;;;;;8.10;3.78;;;28.40;90.10;;;;;;5103614;28;20212;-45
2021/10/09 04:10:44;;;;;;;5.68;4.35;;;28.50;90.20;;;;;;5103343;28;20087;-45
2021/10/09 04:13:11;;;;;;;11.18;4.25;;;28.50;90.10;;;;;;5103338;28;20062;-43
2021/10/09 04:15:37;;;;;;;5.75;3.85;;;28.50;90.10;;;;;;5103127;28;20024;-49
2021/10/09 04:18:04;;;;;;;7.72;3.88;;;28.50;90.20;;;;;;5103421;28;20027;-43
2021/10/09 04:20:31;;;;;;;8.23;3.88;;;28.40;90.20;;;;;;5103907;28;20331;-46
2021/10/09 04:22:57;;;;;;;7.05;4.00;;;28.50;90.20;;;;;;5103419;28;20028;-46
2021/10/09 04:25:24;;;;;;;6.95;3.80;;;28.40;90.30;;;;;;5103377;28;20024;-45
2021/10/09 04:27:51;;;;;;;5.72;3.45;;;28.40;90.30;;;;;;5103630;28;20055;-46
2021/10/09 04:30:17;;;;;;;7.03;3.90;;;28.40;90.30;;;;;;5103687;28;20020;-43
2021/10/09 04:32:44;;;;;;;7.18;3.97;;;28.50;90.30;;;;;;5106028;28;20267;-39
2021/10/09 04:35:10;;;;;;;8.43;3.60;;;28.40;90.40;;;;;;5106588;28;20097;-50
2021/10/09 04:37:37;;;;;;;10.02;4.10;;;28.40;90.30;;;;;;5107049;28;20032;-44
2021/10/09 04:40:05;;;;;;;6.28;3.78;;;28.40;90.40;;;;;;5107112;28;20028;-42
2021/10/09 04:42:31;;;;;;;8.27;4.28;;;28.40;90.40;;;;;;5106853;28;20058;-50
2021/10/09 04:44:58;;;;;;;5.28;3.83;;;28.40;90.40;;;;;;5107124;28;20063;-46
2021/10/09 04:47:25;;;;;;;7.45;4.10;;;28.40;90.60;;;;;;5106752;28;20016;-44
2021/10/09 04:49:51;;;;;;;10.18;3.92;;;28.40;90.40;;;;;;5106824;28;20050;-38
2021/10/09 04:52:18;;;;;;;8.63;4.05;;;28.40;90.50;;;;;;5106723;28;20012;-43
2021/10/09 04:54:45;;;;;;;9.68;3.95;;;28.40;90.60;;;;;;5106856;28;20134;-45
2021/10/09 04:57:11;;;;;;;9.13;4.20;;;28.30;90.60;;;;;;5106501;28;20216;-42
2021/10/09 04:59:38;;;;;;;5.60;4.10;;;28.30;90.70;;;;;;5106853;28;20032;-38
2021/10/09 05:02:04;;;;;;;8.10;4.07;;;28.30;90.70;;;;;;5106619;28;20027;-43
2021/10/09 05:04:31;;;;;;;9.18;3.70;;;28.30;90.80;;;;;;5106533;28;20020;-47
2021/10/09 05:06:58;;;;;;;7.20;3.88;;;28.30;90.80;;;;;;5106435;28;20073;-38
2021/10/09 05:09:24;;;;;;;9.02;3.92;;;28.30;90.90;;;;;;5106411;28;20024;-47
2021/10/09 05:11:51;;;;;;;5.95;3.92;;;28.30;90.90;;;;;;5106342;28;20020;-38
2021/10/09 05:14:17;;;;;;;7.05;4.15;;;28.30;90.90;;;;;;5106464;28;20031;-40
2021/10/09 05:16:44;;;;;;;8.80;4.35;;;28.30;91.00;;;;;;5106309;28;20020;-42
2021/10/09 05:19:11;;;;;;;6.72;4.35;;;28.30;91.00;;;;;;5106232;28;20094;-40
2021/10/09 05:21:37;;;;;;;8.98;4.18;;;28.20;91.00;;;;;;5106213;28;20079;-43
2021/10/09 05:24:04;;;;;;;9.30;4.32;;;28.30;91.10;;;;;;5106077;28;20052;-44
2021/10/09 05:26:31;;;;;;;5.45;4.05;;;28.20;91.00;;;;;;5106014;28;20058;-41
2021/10/09 05:28:58;;;;;;;7.13;4.15;;;28.20;91.10;;;;;;5106175;28;20091;-50
2021/10/09 06:01:45;;;;;;;12.15;4.10;;;28.10;91.30;;;;;;5105541;28;19938;-45
2021/10/09 07:00:41;;;;;;;7.65;4.18;;;28.00;91.40;;;;;;5104490;28;20031;-37
2021/10/09 07:03:08;;;;;;;7.35;4.20;;;27.90;91.40;;;;;;5104384;28;20066;-44
2021/10/09 07:05:40;;;;;;;14.00;4.40;;;27.90;91.50;;;;;;5104043;28;20069;-36
2021/10/09 07:08:10;;;;;;;9.88;3.67;;;28.00;91.50;;;;;;5104250;28;20012;-37
2021/10/09 07:10:42;;;;;;;6.60;3.85;;;28.00;91.50;;;;;;5104138;28;20028;-47
2021/10/09 07:13:09;;;;;;;;;;;27.90;91.50;;;;;;5104517;28;20016;-42
2021/10/09 07:15:36;;;;;;;7.53;3.53;;;27.90;91.50;;;;;;5104289;28;19900;-36
2021/10/09 07:18:05;;;;;;;7.28;3.92;;;27.90;91.50;;;;;;5104006;28;20332;-36
2021/10/09 07:20:31;;;;;;;7.95;3.55;;;27.90;91.50;;;;;;5104642;28;20038;-42
2021/10/09 07:22:58;;;;;;;8.27;3.20;;;27.90;91.50;;;;;;5104158;28;20242;-44
2021/10/09 07:25:24;;;;;;;4.63;2.60;;;27.90;91.30;;;;;;5104290;28;20300;-36
2021/10/09 07:27:51;;;;;;;4.50;2.30;;;27.90;91.00;;;;;;5104002;28;20031;-42
2021/10/09 07:30:18;;;;;;;3.08;2.05;;;27.90;90.80;;;;;;5103928;28;20083;-36
2021/10/09 07:32:45;;;;;;;1.90;1.70;;;27.90;90.80;;;;;;5103910;28;20020;-41
2021/10/09 07:35:13;;;;;;;4.57;1.90;;;27.90;90.80;;;;;;5104320;28;20036;-36
2021/10/09 07:37:39;;;;;;;5.50;2.10;;;27.90;90.70;;;;;;5103987;28;20016;-36
2021/10/09 07:40:07;;;;;;;4.78;2.30;;;27.80;90.70;;;;;;5104251;28;20307;-34
2021/10/09 07:42:34;;;;;;;3.75;2.05;;;27.80;90.70;;;;;;5103963;28;20052;-37
2021/10/09 07:45:00;;;;;;;7.03;2.60;;;27.80;90.80;;;;;;5104286;28;20035;-38
2021/10/09 07:47:27;;;;;;;5.65;2.80;;;27.90;90.80;;;;;;5104077;28;20022;-40
2021/10/09 07:49:53;;;;;;;5.40;2.28;;;27.80;90.90;;;;;;5104235;28;20240;-39
2021/10/09 07:52:20;;;;;;;4.18;2.88;;;27.80;90.80;;;;;;5103909;28;20016;-38
2021/10/09 07:54:46;;;;;;;3.63;2.22;;;27.80;90.80;;;;;;5103960;28;20024;-37
2021/10/09 07:57:13;;;;;;;3.95;1.80;;;27.80;90.70;;;;;;5103984;28;20099;-34
2021/10/09 07:59:40;;;;;;;3.42;2.10;;;27.80;90.60;;;;;;5104263;28;20036;-36
2021/10/09 08:02:06;;;;;;;5.03;1.90;;;27.70;90.50;;;;;;5103854;28;20016;-34
2021/10/09 08:04:33;;;;;;;3.53;1.88;;;27.70;90.30;;;;;;5103766;28;20059;-35
2021/10/09 08:07:00;;;;;;;1.90;1.65;;;27.70;90.20;;;;;;5105270;28;20197;-34
2021/10/09 08:09:30;;;;;;;4.47;1.90;;;27.70;90.20;;;;;;5107894;28;20028;-34
2021/10/09 08:11:57;;;;;;;4.82;1.80;;;27.70;90.10;;;;;;5107756;28;20016;-34
2021/10/09 08:14:24;;;;;;;4.50;1.83;;;27.70;90.20;;;;;;5107829;28;20032;-41
2021/10/09 08:16:51;;;;;;;2.42;2.00;;;27.70;90.30;;;;;;5107518;28;20083;-35
2021/10/09 08:19:17;;;;;;;4.07;2.05;;;27.70;90.40;;;;;;5107541;28;20035;-40
2021/10/09 08:21:45;;;;;;;2.88;2.05;;;27.70;90.50;;;;;;5107493;28;20020;-40
2021/10/09 08:26:50;;;;;;;4.60;2.50;;;27.70;90.60;;;;;;5107163;28;20019;-34
2021/10/09 08:40:12;;;;;;;6.82;3.13;;;27.70;90.80;;;;;;5107362;28;20051;-42
2021/10/09 08:42:39;;;;;;;4.45;2.70;;;27.70;90.90;;;;;;5107044;28;20027;-44
2021/10/09 08:45:07;;;;;;;7.85;3.03;;;27.70;91.00;;;;;;5107284;28;20035;-44
2021/10/09 08:47:36;;;;;;;4.30;3.10;;;27.60;90.90;;;;;;5106762;28;20020;-42
2021/10/09 08:50:06;;;;;;;7.38;3.20;;;27.60;91.00;;;;;;5107220;28;20028;-42
2021/10/09 08:52:33;;;;;;;6.18;3.28;;;27.60;91.00;;;;;;5106818;28;20008;-48
2021/10/09 08:55:21;;;;;;;6.18;3.28;;;27.60;91.00;;;;;;5106730;28;20051;-37
2021/10/09 08:57:49;;;;;;;4.13;3.05;;;27.60;91.10;;;;;;5106835;28;20027;-36
2021/10/09 09:00:22;;;;;;;4.00;3.22;;;27.60;91.10;;;;;;5106903;28;20028;-46
2021/10/09 09:03:10;;;;;;;5.13;3.38;;;27.60;91.10;;;;;;5106594;28;20028;-35
2021/10/09 09:41:15;;;;;;;5.72;3.58;;;27.50;91.30;;;;;;5105759;28;20028;-38
2021/10/09 09:43:43;;;;;;;7.65;3.83;;;27.50;91.30;;;;;;5105974;28;20028;-45
2021/10/09 09:46:23;;;;;;;6.97;3.67;;;27.50;91.30;;;;;;5105901;28;20020;-39
2021/10/09 09:48:51;;;;;;;5.85;3.50;;;27.50;91.30;;;;;;5105845;28;20028;-40
2021/10/09 09:51:20;;;;;;;4.68;3.20;;;27.50;91.20;;;;;;5105881;28;20020;-37
2021/10/09 09:53:48;;;;;;;5.10;3.35;;;27.50;91.20;;;;;;5105658;28;20046;-42
2021/10/09 09:56:16;;;;;;;5.60;3.35;;;27.50;91.20;;;;;;5105558;28;20103;-37
2021/10/09 09:58:44;;;;;;;4.18;3.33;;;27.40;91.20;;;;;;5105499;28;20028;-37
2021/10/09 10:01:12;;;;;;;8.88;3.53;;;27.40;91.20;;;;;;5105364;28;20016;-39
2021/10/09 10:03:46;;;;;;;8.43;3.85;;;27.40;91.20;;;;;;5105523;28;20028;-43
2021/10/09 10:06:13;;;;;;;5.57;3.85;;;27.40;91.20;;;;;;5105539;28;20012;-39
2021/10/09 10:08:43;;;;;;;7.45;4.00;;;27.50;91.30;;;;;;5105464;28;20297;-44
2021/10/09 10:11:11;;;;;;;5.43;3.50;;;27.40;91.20;;;;;;5105279;28;20082;-39
2021/10/09 10:13:40;;;;;;;5.80;3.53;;;27.40;91.30;;;;;;5105289;28;20024;-39
2021/10/09 10:16:11;;;;;;;7.25;3.78;;;27.40;91.30;;;;;;5105114;28;20046;-42
2021/10/09 10:18:51;;;;;;;9.40;4.13;;;27.40;91.30;;;;;;5105134;28;20028;-36
2021/10/09 10:21:44;;;;;;;5.75;4.18;;;27.40;91.30;;;;;;5105253;28;20020;-39
2021/10/09 10:24:12;;;;;;;6.85;4.28;;;27.40;91.30;;;;;;5105045;28;20091;-40
2021/10/09 10:26:39;;;;;;;7.18;4.28;;;27.30;91.50;;;;;;5104889;28;20024;-37
2021/10/09 10:29:05;;;;;;;7.95;4.60;;;27.40;91.30;;;;;;5104702;28;20339;-37
2021/10/09 10:31:36;;;;;;;6.32;4.05;;;27.30;91.30;;;;;;5104919;28;20323;-39
2021/10/09 10:34:21;;;;;;;7.45;4.10;;;27.30;91.30;;;;;;5105052;28;20296;-38
2021/10/09 10:36:48;;;;;;;7.30;3.90;;;27.30;91.30;;;;;;5104713;28;20028;-43
2021/10/09 10:39:26;;;;;;;6.00;3.83;;;27.30;91.30;;;;;;5104865;28;20024;-45
2021/10/09 10:42:00;;;;;;;6.13;3.83;;;27.20;91.30;;;;;;5104704;28;20048;-39
2021/10/09 10:48:03;;;;;;;6.88;3.85;;;27.20;91.30;;;;;;5104667;28;20004;-37
2021/10/09 10:50:53;;;;;;;7.95;3.95;;;27.20;91.40;;;;;;5105006;28;20031;-44
2021/10/09 10:53:30;;;;;;;9.35;3.88;;;27.20;91.40;;;;;;5104651;28;20308;-41
2021/10/09 10:56:11;;;;;;;6.82;3.85;;;27.30;91.40;;;;;;5104190;28;20116;-45
2021/10/09 10:58:38;;;;;;;5.90;3.83;;;27.30;91.50;;;;;;5104551;28;20028;-37
2021/10/09 11:01:18;;;;;;;10.65;4.25;;;27.30;91.50;;;;;;5104188;28;20212;-39
2021/10/09 11:04:03;;;;;;;7.55;4.03;;;27.30;91.50;;;;;;5104358;28;20032;-37
2021/10/09 11:06:29;;;;;;;6.55;3.65;;;27.30;91.50;;;;;;5103341;28;20039;-40
2021/10/09 11:08:56;;;;;;;8.93;4.13;;;27.30;91.50;;;;;;5104198;28;20081;-39
2021/10/09 11:11:45;;;;;;;12.13;4.20;;;27.30;91.50;;;;;;5104208;28;20020;-45
2021/10/09 11:14:22;;;;;;;9.43;5.50;;;27.30;91.60;;;;;;5104287;28;20220;-38
2021/10/09 11:16:58;;;;;;;11.30;6.00;;;27.30;91.60;;;;;;5104107;28;20087;-38
2021/10/09 11:19:40;;;;;;;10.75;5.35;;;27.30;91.50;;;;;;5104383;28;20059;-41
2021/10/09 11:22:07;;;;;;;5.93;4.65;;;27.30;91.50;;;;;;5104066;28;20050;-39
2021/10/09 11:24:42;;;;;;;7.82;4.80;;;27.30;91.50;;;;;;5104169;28;20031;-38
2021/10/09 11:27:09;;;;;;;9.95;4.55;;;27.30;91.50;;;;;;5104075;28;20083;-43
2021/10/09 11:29:35;;;;;;;8.13;4.38;;;27.40;91.50;;;;;;5104339;28;20051;-41
2021/10/09 11:32:07;;;;;;;10.68;5.25;;;27.40;91.50;;;;;;5104047;28;20312;-40
2021/10/09 11:34:53;;;;;;;6.70;4.47;;;27.50;91.40;;;;;;5104192;28;20036;-42
2021/10/09 11:37:20;;;;;;;8.57;4.47;;;27.60;91.20;;;;;;5104134;28;20262;-39
2021/10/09 11:39:53;;;;;;;7.60;3.83;;;27.80;91.00;;;;;;5104245;28;20024;-41
2021/10/09 11:42:23;;;;;;;4.85;3.58;;;28.00;90.70;;;;;;5107501;28;20208;-38
2021/10/09 11:45:03;;;;;;;12.40;4.47;;;28.00;90.60;;;;;;5108011;28;20111;-38
2021/10/09 11:53:28;;;;;;;7.90;4.60;;;28.00;90.70;;;;;;5107960;28;20020;-41
2021/10/09 11:56:02;;;;;;;6.22;3.60;;;27.80;90.90;;;;;;5107534;28;20059;-43
2021/10/09 11:58:29;;;;;;;8.80;3.22;;;27.80;91.00;;;;;;5107669;28;20056;-37
2021/10/09 12:00:56;;;;;;;7.93;3.28;;;27.70;91.00;;;;;;5107780;28;20022;-37
2021/10/09 12:03:36;;;;;;;4.70;3.33;;;27.80;91.00;;;;;;5107490;28;20185;-38
2021/10/09 12:06:10;;;;;;;7.82;3.53;;;27.80;91.00;;;;;;5107445;28;20032;-42
2021/10/09 12:08:54;;;;;;;8.32;4.50;;;27.80;91.00;;;;;;5107379;28;20035;-41
2021/10/09 12:11:23;;;;;;;8.43;4.43;;;27.80;91.00;;;;;;5107504;28;20020;-38
2021/10/09 12:13:57;;;;;;;8.57;4.60;;;27.90;91.00;;;;;;5107384;28;20062;-38
2021/10/09 12:16:28;;;;;;;7.65;4.15;;;27.90;90.90;;;;;;5107334;28;20019;-41
2021/10/09 12:19:05;;;;;;;7.70;3.92;;;27.90;90.90;;;;;;5107359;28;20024;-43
2021/10/09 12:21:38;;;;;;;10.00;4.15;;;28.00;90.90;;;;;;5107365;28;20074;-40
2021/10/09 12:24:18;;;;;;;8.20;3.50;;;28.10;90.80;;;;;;5107406;28;20020;-38
2021/10/09 12:27:03;;;;;;;12.85;4.10;;;28.10;90.70;;;;;;5107413;28;20308;-48
2021/10/09 12:29:31;;;;;;;10.02;3.47;;;28.20;90.70;;;;;;5107034;28;20024;-41
2021/10/09 12:32:17;;;;;;;13.60;3.92;;;28.20;90.60;;;;;;5107097;28;20311;-38
2021/10/09 12:34:43;;;;;;;8.32;3.55;;;28.20;90.50;;;;;;5107470;28;20178;-37
2021/10/09 12:37:25;;;;;;;9.35;3.83;;;28.20;90.40;;;;;;5107098;28;20327;-38
2021/10/09 12:40:16;;;;;;;12.45;3.53;;;28.30;90.30;;;;;;5107337;28;20036;-40
2021/10/09 12:42:54;;;;;;;10.20;3.50;;;28.30;90.20;;;;;;5107155;28;20094;-37
2021/10/09 12:45:24;;;;;;;9.07;3.40;;;28.30;90.10;;;;;;5107080;28;20024;-40
2021/10/09 12:47:50;;;;;;;9.40;3.65;;;28.40;90.10;;;;;;5106801;28;20087;-41
2021/10/09 12:50:18;;;;;;;12.02;4.10;;;28.40;90.00;;;;;;5107224;28;20031;-41
2021/10/09 12:52:46;;;;;;;10.23;3.85;;;28.40;90.00;;;;;;5105849;28;20075;-39
2021/10/09 12:55:14;;;;;;;8.80;4.10;;;28.40;89.90;;;;;;5106869;28;20047;-42
2021/10/09 12:57:55;;;;;;;9.40;3.50;;;28.50;90.20;;;;;;5106857;28;20073;-39
2021/10/09 13:00:24;;;;;;;6.60;3.53;;;28.50;89.80;;;;;;5106925;28;20145;-49
2021/10/09 13:02:51;;;;;;;7.55;3.83;;;28.60;89.90;;;;;;5106745;28;20052;-48
2021/10/09 13:05:24;;;;;;;5.88;3.55;;;28.60;89.80;;;;;;5106852;28;20039;-41
2021/10/09 13:07:52;;;;;;;7.93;3.42;;;28.60;89.70;;;;;;5106457;28;20020;-38
2021/10/09 13:10:22;;;;;;;7.35;3.38;;;28.60;89.60;;;;;;5106940;28;20031;-38
2021/10/09 13:12:50;;;;;;;5.10;3.60;;;28.60;89.90;;;;;;5106240;28;20331;-40
2021/10/09 13:15:18;;;;;;;8.75;3.10;;;28.70;89.40;;;;;;5106256;28;20050;-36
2021/10/09 13:17:46;;;;;;;7.78;3.88;;;28.70;89.30;;;;;;5106261;28;20020;-40
2021/10/09 13:20:13;;;;;;;8.00;3.35;;;28.70;89.20;;;;;;5106589;28;20097;-37
2021/10/09 13:22:39;;;;;;;7.80;3.35;;;28.70;89.10;;;;;;5106228;28;20043;-41
2021/10/09 13:25:06;;;;;;;6.05;3.30;;;28.80;89.10;;;;;;5106379;28;20246;-42
2021/10/09 13:27:33;;;;;;;8.27;3.42;;;28.80;89.00;;;;;;5106103;28;20112;-37
2021/10/09 13:30:00;;;;;;;6.00;2.95;;;28.80;89.00;;;;;;5106594;28;20243;-38
2021/10/09 13:32:26;;;;;;;7.53;3.67;;;28.80;89.00;;;;;;5105961;28;20012;-38
2021/10/09 13:34:53;;;;;;;6.43;3.50;;;28.80;88.90;;;;;;5106239;28;20324;-39
2021/10/09 13:37:21;;;;;;;6.13;3.00;;;28.80;88.90;;;;;;5106108;28;20261;-39
2021/10/09 13:39:49;;;;;;;8.75;3.30;;;28.90;88.90;;;;;;5106222;28;20365;-44
2021/10/09 13:42:16;;;;;;;6.18;3.20;;;28.90;88.90;;;;;;5105690;28;20070;-40
2021/10/09 13:44:43;;;;;;;7.57;3.40;;;28.90;88.80;;;;;;5105978;28;20052;-39
2021/10/09 13:47:12;;;;;;;7.15;2.83;;;28.90;88.70;;;;;;5105838;28;20016;-43
2021/10/09 13:49:39;;;;;;;7.43;3.42;;;28.90;88.60;;;;;;5105959;28;20034;-38
2021/10/09 13:52:07;;;;;;;5.20;2.90;;;29.00;88.60;;;;;;5105709;28;20016;-39
2021/10/09 13:54:33;;;;;;;5.03;3.17;;;29.00;88.50;;;;;;5105808;28;20073;-39
2021/10/09 13:57:00;;;;;;;6.68;3.17;;;29.00;88.30;;;;;;5105192;28;20047;-47
2021/10/09 13:59:28;;;;;;;10.68;3.85;;;29.10;88.30;;;;;;5105678;28;20226;-40
2021/10/09 14:01:54;;;;;;;6.95;3.00;;;29.10;88.20;;;;;;5105292;28;20085;-39
2021/10/09 14:04:21;;;;;;;4.63;3.13;;;29.10;88.00;;;;;;5103073;28;20024;-47
2021/10/09 14:06:47;;;;;;;13.85;3.72;;;29.20;87.90;;;;;;5105344;28;20016;-42
2021/10/09 14:09:14;;;;;;;8.60;3.20;;;29.20;87.80;;;;;;5105633;28;20016;-38
2021/10/09 14:11:40;;;;;;;5.75;3.20;;;29.20;87.70;;;;;;5105230;28;20020;-40
2021/10/09 14:14:07;;;;;;;9.77;3.80;;;29.20;87.60;;;;;;5105555;28;20050;-46
2021/10/09 14:16:34;;;;;;;6.30;3.10;;;29.20;87.60;;;;;;5105415;28;20091;-42
2021/10/09 14:19:00;;;;;;;6.10;3.35;;;29.20;87.50;;;;;;5105180;28;20024;-45
2021/10/09 14:21:27;;;;;;;8.23;3.58;;;29.20;87.50;;;;;;5105060;28;20232;-41
2021/10/09 14:23:53;;;;;;;7.88;3.20;;;29.20;87.50;;;;;;5105064;28;20106;-38
2021/10/09 14:26:20;;;;;;;9.32;3.42;;;29.30;87.40;;;;;;5104853;28;20039;-38
2021/10/09 14:28:46;;;;;;;7.53;3.10;;;29.30;87.30;;;;;;5105037;28;20035;-37
2021/10/09 14:31:14;;;;;;;5.18;2.95;;;29.40;87.30;;;;;;5104945;28;20020;-38
2021/10/09 14:33:41;;;;;;;6.50;3.30;;;29.40;87.20;;;;;;5104958;28;20020;-42
2021/10/09 14:36:08;;;;;;;5.25;3.25;;;29.40;87.10;;;;;;5104819;28;20024;-40
2021/10/09 14:38:35;;;;;;;9.45;3.20;;;29.40;87.60;;;;;;5104745;28;20032;-50
2021/10/09 14:41:01;;;;;;;4.45;3.13;;;29.40;87.00;;;;;;5104821;28;20043;-40
2021/10/09 14:43:28;;;;;;;7.35;3.38;;;29.40;87.10;;;;;;5104601;28;20315;-37
2021/10/09 14:46:02;;;;;;;10.65;3.10;;;29.40;86.90;;;;;;5104559;28;20073;-39
2021/10/09 14:48:35;;;;;;;6.97;3.05;;;29.40;86.90;;;;;;5104572;28;20234;-42
2021/10/09 15:18:21;;;;;;;9.30;3.28;;;29.70;85.50;;;;;;5104198;28;20058;-43
2021/10/09 15:20:49;;;;;;;11.65;3.72;;;29.70;85.30;;;;;;5104064;28;20020;-48
2021/10/09 15:23:16;;;;;;;6.43;3.40;;;29.70;85.00;;;;;;5104060;28;20316;-49
2021/10/09 15:25:44;;;;;;;6.80;3.30;;;29.70;84.80;;;;;;5103894;28;20024;-44
2021/10/09 15:28:13;;;;;;;6.78;3.28;;;29.70;84.40;;;;;;5102814;28;20023;-41
2021/10/09 15:30:40;;;;;;;8.75;3.25;;;29.80;84.40;;;;;;5103856;28;20064;-45
2021/10/09 15:33:06;;;;;;;5.85;3.45;;;29.80;84.40;;;;;;5103945;28;20012;-42
2021/10/09 15:35:34;;;;;;;8.38;3.45;;;29.80;84.20;;;;;;5104001;28;20051;-39
2021/10/09 15:38:06;;;;;;;5.40;3.30;;;29.80;84.00;;;;;;5103769;28;20048;-40
2021/10/09 15:40:35;;;;;;;6.90;3.17;;;29.90;83.90;;;;;;5103946;28;20036;-44
2021/10/09 15:43:01;;;;;;;8.35;3.40;;;29.90;83.80;;;;;;5103826;28;20031;-43
2021/10/09 15:45:28;;;;;;;8.63;3.60;;;29.90;83.50;;;;;;5103573;28;20069;-44
2021/10/09 15:47:55;;;;;;;5.13;3.00;;;29.90;83.50;;;;;;5103956;28;20043;-47
2021/10/09 15:50:23;;;;;;;5.60;3.28;;;29.90;83.30;;;;;;5104291;28;20133;-51
2021/10/09 15:52:50;;;;;;;6.45;3.53;;;30.00;83.20;;;;;;5103603;28;20081;-51
2021/10/09 15:55:18;;;;;;;8.93;3.38;;;30.00;83.00;;;;;;5103945;28;20044;-47
2021/10/09 15:57:44;;;;;;;4.60;3.38;;;30.00;82.90;;;;;;5103795;28;20016;-52
2021/10/09 16:00:12;;;;;;;5.25;3.08;;;30.00;82.50;;;;;;5104054;28;20028;-49
2021/10/09 16:02:39;;;;;;;7.68;3.13;;;30.00;82.60;;;;;;5103867;28;20066;-48
2021/10/09 16:05:07;;;;;;;6.05;3.03;;;30.10;82.50;;;;;;5104173;28;20046;-51